METAR

TAF

 




Rio de Janeiro / Galeão - Antonio Carlos Jobim, RJ - SBGL


27 de Janeiro de 2015 às 14:00 (UTC)


Tempo:

Céu sem restrições operacionais para aviação

Temperatura:

34ºC

Umidade Relativa:

44%

Localização:
Ajuste do Altímetro:

1013 hPa

Visibilidade Horizontal Predominante:

Igual ou acima de 10 Km

Direção e Velocidade do Vento:

040° 7,41 Km/h


Observação Meteorológica:

METAR SBGL 271400Z 04004KT CAVOK 34/20 Q1013=